createdAt,value
2022-11-18T00:01:06.496Z,81.42
2022-11-18T00:03:33.738Z,81.44
2022-11-18T00:06:00.603Z,81.58
2022-11-18T00:08:27.494Z,81.66
2022-11-18T00:10:54.508Z,81.71
2022-11-18T00:13:39.857Z,81.52
2022-11-18T00:16:08.405Z,81.36
2022-11-18T00:18:35.500Z,81.41
2022-11-18T00:21:03.233Z,81.63
2022-11-18T00:23:30.464Z,81.44
2022-11-18T00:26:02.092Z,81.18
2022-11-18T00:28:28.892Z,81.19
2022-11-18T00:31:00.669Z,81.30
2022-11-18T00:33:27.633Z,81.53
2022-11-18T00:35:54.777Z,81.44
2022-11-18T00:38:21.609Z,81.23
2022-11-18T00:40:48.442Z,81.06
2022-11-18T00:43:15.314Z,80.98
2022-11-18T00:45:43.102Z,80.86
2022-11-18T00:48:09.855Z,80.95
2022-11-18T00:50:36.900Z,80.89
2022-11-18T00:53:03.782Z,80.75
2022-11-18T00:55:30.616Z,80.77
2022-11-18T00:57:57.393Z,80.59
2022-11-18T01:00:24.340Z,80.49
2022-11-18T01:02:51.144Z,80.60
2022-11-18T01:05:18.057Z,80.54
2022-11-18T01:07:45.084Z,80.54
2022-11-18T01:10:11.864Z,80.64
2022-11-18T01:12:58.407Z,80.43
2022-11-18T01:15:25.261Z,80.59
2022-11-18T01:17:52.625Z,80.39
2022-11-18T01:20:19.561Z,80.36
2022-11-18T01:22:46.396Z,80.13
2022-11-18T01:25:13.408Z,80.23
2022-11-18T01:27:41.032Z,80.27
2022-11-18T01:30:08.121Z,80.06
2022-11-18T01:32:35.086Z,79.92
2022-11-18T01:35:02.032Z,80.09
2022-11-18T01:37:29.824Z,80.00
2022-11-18T01:39:56.708Z,79.93
2022-11-18T01:42:23.580Z,79.81
2022-11-18T01:45:01.235Z,80.04
2022-11-18T01:47:39.025Z,80.19
2022-11-18T01:50:06.467Z,79.66
2022-11-18T01:52:34.079Z,79.82
2022-11-18T01:55:03.235Z,79.77
2022-11-18T01:57:32.540Z,79.55
2022-11-18T01:59:59.749Z,79.66
2022-11-18T02:02:26.678Z,79.87
2022-11-18T02:04:53.654Z,79.99
2022-11-18T02:07:21.271Z,79.94
2022-11-18T02:09:48.214Z,79.86
2022-11-18T02:12:15.308Z,79.91
2022-11-18T02:14:42.940Z,79.80
2022-11-18T02:17:09.858Z,79.71
2022-11-18T02:19:36.825Z,79.49
2022-11-18T02:22:20.293Z,79.80
2022-11-18T02:24:49.984Z,79.65
2022-11-18T02:27:25.440Z,79.92
2022-11-18T02:29:55.196Z,79.76
2022-11-18T02:32:26.426Z,79.84
2022-11-18T02:34:53.257Z,79.68
2022-11-18T02:37:25.449Z,79.83
2022-11-18T02:39:58.142Z,79.81
2022-11-18T02:42:25.473Z,79.84
2022-11-18T02:44:53.287Z,79.75
2022-11-18T02:47:20.250Z,79.99
2022-11-18T02:49:48.255Z,79.81
2022-11-18T02:52:15.270Z,79.85
2022-11-18T02:54:42.253Z,79.90
2022-11-18T02:57:09.276Z,79.93
2022-11-18T02:59:36.107Z,79.95
2022-11-18T03:02:03.353Z,79.92
2022-11-18T03:04:30.301Z,80.06
2022-11-18T03:07:03.550Z,79.99
2022-11-18T03:09:32.502Z,79.96
2022-11-18T03:12:19.055Z,80.27
2022-11-18T03:15:05.055Z,79.96
2022-11-18T03:17:50.763Z,80.31
2022-11-18T03:20:33.649Z,80.14
2022-11-18T03:23:03.766Z,80.18
2022-11-18T03:25:43.073Z,80.24
2022-11-18T03:28:15.296Z,80.16
2022-11-18T03:30:44.913Z,79.92
2022-11-18T03:33:17.004Z,80.11
2022-11-18T03:35:44.759Z,80.18
2022-11-18T03:38:13.570Z,80.08
2022-11-18T03:40:41.474Z,80.15
2022-11-18T03:43:15.757Z,79.94
2022-11-18T03:46:02.951Z,79.72
2022-11-18T03:48:30.701Z,79.79
2022-11-18T03:51:01.841Z,80.22
2022-11-18T03:53:30.201Z,80.02
2022-11-18T03:56:02.662Z,79.91
2022-11-18T03:58:40.809Z,79.92
2022-11-18T04:01:18.460Z,79.98
2022-11-18T04:03:45.604Z,79.89
2022-11-18T04:06:16.713Z,79.90
2022-11-18T04:08:45.052Z,80.16
2022-11-18T04:11:38.582Z,80.20
2022-11-18T04:14:06.071Z,80.20
2022-11-18T04:16:39.240Z,80.08
2022-11-18T04:19:06.557Z,80.23
2022-11-18T04:21:33.862Z,80.14
2022-11-18T04:24:00.682Z,80.18
2022-11-18T04:26:27.612Z,79.94
2022-11-18T04:28:54.700Z,80.25
2022-11-18T04:31:21.561Z,80.08
2022-11-18T04:33:48.507Z,80.03
2022-11-18T04:36:15.396Z,80.23
2022-11-18T04:38:42.181Z,80.29
2022-11-18T04:41:09.067Z,80.30
2022-11-18T04:43:38.474Z,80.15
2022-11-18T04:46:05.432Z,80.13
2022-11-18T04:48:32.313Z,80.11
2022-11-18T04:51:03.257Z,80.05
2022-11-18T04:53:30.169Z,79.96
2022-11-18T04:55:57.033Z,80.11
2022-11-18T04:58:23.852Z,80.11
2022-11-18T05:00:50.943Z,80.24
2022-11-18T05:03:32.953Z,80.29
2022-11-18T05:06:02.618Z,80.27
2022-11-18T05:08:39.933Z,80.39
2022-11-18T05:11:25.900Z,80.35
2022-11-18T05:13:52.933Z,80.34
2022-11-18T05:16:21.155Z,80.09
2022-11-18T05:18:48.051Z,80.41
2022-11-18T05:24:29.836Z,80.35
2022-11-18T05:26:57.434Z,80.29
2022-11-18T05:29:24.313Z,80.06
2022-11-18T05:31:51.444Z,79.97
2022-11-18T05:34:18.661Z,80.18
2022-11-18T05:36:45.748Z,80.11
2022-11-18T05:39:12.786Z,80.07
2022-11-18T05:41:58.437Z,80.04
2022-11-18T05:44:25.448Z,79.84
2022-11-18T05:46:52.331Z,80.17
2022-11-18T05:49:19.496Z,79.98
2022-11-18T05:51:51.765Z,80.15
2022-11-18T05:54:19.480Z,80.00
2022-11-18T05:56:46.445Z,79.82
2022-11-18T05:59:14.190Z,79.73
2022-11-18T06:01:41.225Z,79.57
2022-11-18T06:04:28.265Z,79.83
2022-11-18T06:06:56.058Z,79.61
2022-11-18T06:09:23.802Z,79.62
2022-11-18T06:11:52.061Z,79.76
2022-11-18T06:14:20.508Z,79.71
2022-11-18T06:16:50.358Z,79.60
2022-11-18T06:19:17.464Z,79.51
2022-11-18T06:21:50.181Z,79.34
2022-11-18T06:24:17.177Z,79.73
2022-11-18T06:26:44.061Z,79.53
2022-11-18T06:29:11.649Z,79.53
2022-11-18T06:31:38.601Z,79.31
2022-11-18T06:34:05.438Z,79.47
2022-11-18T06:36:33.109Z,79.46
2022-11-18T06:39:07.428Z,79.54
2022-11-18T06:44:17.857Z,79.33
2022-11-18T06:46:57.468Z,79.34
2022-11-18T06:49:25.022Z,79.26
2022-11-18T06:51:52.193Z,79.26
2022-11-18T06:54:19.234Z,79.15
2022-11-18T06:56:46.274Z,78.94
2022-11-18T06:59:13.493Z,79.12
2022-11-18T07:01:41.299Z,78.85
2022-11-18T07:06:49.026Z,78.70
2022-11-18T07:09:16.131Z,78.98
2022-11-18T07:11:48.806Z,78.91
2022-11-18T07:14:15.907Z,78.72
2022-11-18T07:16:42.786Z,78.63
2022-11-18T07:19:10.775Z,78.59
2022-11-18T07:21:38.172Z,78.70
2022-11-18T07:24:06.053Z,78.55
2022-11-18T07:26:33.208Z,78.29
2022-11-18T07:29:03.126Z,78.11
2022-11-18T07:31:30.270Z,78.23
2022-11-18T07:33:57.190Z,77.82
2022-11-18T07:36:27.745Z,77.80
2022-11-18T07:38:58.778Z,77.71
2022-11-18T07:41:26.991Z,77.79
2022-11-18T07:44:01.351Z,77.53
2022-11-18T07:46:29.817Z,77.44
2022-11-18T07:48:57.484Z,77.02
2022-11-18T07:51:27.643Z,77.23
2022-11-18T07:53:57.419Z,77.08
2022-11-18T07:56:24.823Z,77.25
2022-11-18T07:58:56.138Z,76.93
2022-11-18T08:01:24.596Z,76.86
2022-11-18T08:03:51.782Z,76.63
2022-11-18T08:06:19.246Z,76.73
2022-11-18T08:08:46.309Z,76.68
2022-11-18T08:11:21.903Z,76.87
2022-11-18T08:13:49.473Z,77.16
2022-11-18T08:16:17.641Z,76.73
2022-11-18T08:18:44.579Z,77.04
2022-11-18T08:21:14.706Z,77.10
2022-11-18T08:23:42.777Z,77.29
2022-11-18T08:26:15.524Z,77.22
2022-11-18T08:28:43.736Z,77.53
2022-11-18T08:31:11.407Z,77.52
2022-11-18T08:33:38.689Z,77.39
2022-11-18T08:36:08.434Z,77.49
2022-11-18T08:38:35.554Z,77.22
2022-11-18T08:41:03.663Z,76.91
2022-11-18T08:43:30.521Z,77.04
2022-11-18T08:45:57.444Z,76.87
2022-11-18T08:48:26.186Z,76.56
2022-11-18T08:50:53.308Z,76.45
2022-11-18T08:53:20.361Z,76.43
2022-11-18T08:55:47.336Z,76.63
2022-11-18T08:58:14.220Z,76.43
2022-11-18T09:00:41.458Z,76.49
2022-11-18T09:03:08.357Z,76.43
2022-11-18T09:05:35.413Z,76.23
2022-11-18T09:08:02.824Z,76.08
2022-11-18T09:10:30.295Z,75.71
2022-11-18T09:13:18.132Z,75.87
2022-11-18T09:15:44.578Z,76.30
2022-11-18T09:18:11.505Z,76.28
2022-11-18T09:20:38.482Z,76.27
2022-11-18T09:23:05.622Z,75.96
2022-11-18T09:25:32.602Z,76.00
2022-11-18T09:27:59.458Z,75.91
2022-11-18T09:30:29.541Z,75.84
2022-11-18T09:32:56.561Z,75.86
2022-11-18T09:35:25.912Z,76.01
2022-11-18T09:37:54.890Z,75.76
2022-11-18T09:40:23.374Z,75.82
2022-11-18T09:42:53.418Z,75.85
2022-11-18T09:45:24.699Z,75.66
2022-11-18T09:47:52.695Z,75.49
2022-11-18T09:53:16.005Z,75.62
2022-11-18T09:55:43.177Z,75.53
2022-11-18T09:58:13.438Z,75.25
2022-11-18T10:00:40.682Z,74.95
2022-11-18T10:03:12.589Z,75.24
2022-11-18T10:05:48.804Z,75.36
2022-11-18T10:08:26.119Z,75.43
2022-11-18T10:10:59.251Z,75.44
2022-11-18T10:13:26.201Z,75.36
2022-11-18T10:15:53.452Z,75.01
2022-11-18T10:18:57.953Z,75.22
2022-11-18T10:21:16.823Z,75.29
2022-11-18T10:23:43.833Z,75.22
2022-11-18T10:26:10.782Z,75.11
2022-11-18T10:28:38.365Z,74.95
2022-11-18T10:31:09.294Z,75.33
2022-11-18T10:33:36.370Z,75.46
2022-11-18T10:36:10.005Z,75.25
2022-11-18T10:38:50.205Z,75.11
2022-11-18T10:41:20.457Z,75.27
2022-11-18T10:43:59.150Z,75.25
2022-11-18T10:46:27.423Z,75.53
2022-11-18T10:49:09.423Z,75.14
2022-11-18T10:51:37.353Z,74.80
2022-11-18T10:54:17.700Z,74.92
2022-11-18T10:56:45.539Z,75.17
2022-11-18T10:59:17.147Z,74.98
2022-11-18T11:01:44.275Z,75.02
2022-11-18T11:04:22.491Z,74.83
2022-11-18T11:06:56.489Z,75.02
2022-11-18T11:09:30.558Z,75.37
2022-11-18T11:11:59.309Z,75.08
2022-11-18T11:14:36.772Z,75.20
2022-11-18T11:17:10.099Z,75.03
2022-11-18T11:19:49.780Z,75.05
2022-11-18T11:22:21.762Z,75.40
2022-11-18T11:24:49.131Z,75.41
2022-11-18T11:30:10.029Z,75.76
2022-11-18T11:32:39.349Z,75.72
2022-11-18T11:35:17.736Z,75.62
2022-11-18T11:37:44.811Z,75.59
2022-11-18T11:40:34.182Z,75.54
2022-11-18T11:43:04.921Z,75.66
2022-11-18T11:45:50.615Z,75.74
2022-11-18T11:48:36.194Z,75.55
2022-11-18T11:51:06.468Z,75.68
2022-11-18T11:53:48.410Z,75.84
2022-11-18T11:56:22.926Z,75.79
2022-11-18T11:58:53.334Z,75.84
2022-11-18T12:01:23.693Z,75.68
2022-11-18T12:03:57.729Z,75.88
2022-11-18T12:06:24.686Z,75.90
2022-11-18T12:09:00.917Z,76.08
2022-11-18T12:11:37.141Z,76.26
2022-11-18T12:14:18.298Z,76.22
2022-11-18T12:16:48.521Z,76.38
2022-11-18T12:19:16.455Z,76.70
2022-11-18T12:21:52.679Z,76.56
2022-11-18T12:24:31.702Z,76.79
2022-11-18T12:26:59.958Z,76.95
2022-11-18T12:29:34.314Z,76.81
2022-11-18T12:32:07.794Z,76.96
2022-11-18T12:34:41.540Z,77.10
2022-11-18T12:37:38.263Z,77.49
2022-11-18T12:40:05.547Z,77.21
2022-11-18T12:43:01.318Z,77.41
2022-11-18T12:45:37.518Z,77.32
2022-11-18T12:48:04.433Z,77.45
2022-11-18T12:51:06.718Z,77.63
2022-11-18T12:53:36.111Z,77.94
2022-11-18T12:56:18.649Z,77.75
2022-11-18T12:58:46.318Z,77.78
2022-11-18T13:01:14.254Z,77.92
2022-11-18T13:03:41.259Z,78.02
2022-11-18T13:06:13.872Z,78.05
2022-11-18T13:11:46.591Z,78.12
2022-11-18T13:15:08.442Z,78.04
2022-11-18T13:17:55.064Z,78.34
2022-11-18T13:20:24.858Z,78.21
2022-11-18T13:23:14.309Z,78.30
2022-11-18T13:25:42.664Z,78.65
2022-11-18T13:28:12.588Z,78.72
2022-11-18T13:30:43.978Z,78.70
2022-11-18T13:33:10.964Z,78.91
2022-11-18T13:35:37.835Z,79.10
2022-11-18T13:38:08.724Z,78.91
2022-11-18T13:40:40.084Z,78.98
2022-11-18T13:43:10.947Z,79.28
2022-11-18T13:45:37.848Z,78.86
2022-11-18T13:48:08.970Z,79.19
2022-11-18T13:50:40.198Z,79.00
2022-11-18T13:53:16.372Z,79.12
2022-11-18T13:55:47.664Z,79.17
2022-11-18T13:58:55.662Z,78.73
2022-11-18T14:01:25.211Z,78.55
2022-11-18T14:04:03.040Z,78.77
2022-11-18T14:06:43.064Z,78.67
2022-11-18T14:09:26.198Z,78.95
2022-11-18T14:12:05.647Z,78.94
2022-11-18T14:14:36.725Z,78.73
2022-11-18T14:17:20.236Z,78.65
2022-11-18T14:19:51.115Z,78.38
2022-11-18T14:22:19.315Z,78.72
2022-11-18T14:24:53.931Z,78.40
2022-11-18T14:27:36.595Z,78.67
2022-11-18T14:30:24.870Z,78.62
2022-11-18T14:33:11.302Z,78.66
2022-11-18T14:35:41.079Z,78.62
2022-11-18T14:38:40.714Z,78.70
2022-11-18T14:41:03.601Z,78.68
2022-11-18T14:43:31.479Z,78.74
2022-11-18T14:46:00.242Z,78.80
2022-11-18T14:48:32.274Z,78.68
2022-11-18T14:50:59.968Z,78.99
2022-11-18T14:53:27.123Z,78.63
2022-11-18T14:55:54.590Z,78.89
2022-11-18T14:58:21.725Z,79.08
2022-11-18T15:00:51.872Z,78.99
2022-11-18T15:03:20.195Z,78.92
2022-11-18T15:05:47.995Z,78.84
2022-11-18T15:08:16.607Z,78.95
2022-11-18T15:10:44.020Z,78.85
2022-11-18T15:13:11.023Z,78.94
2022-11-18T15:15:37.955Z,79.06
2022-11-18T15:18:05.671Z,78.95
2022-11-18T15:20:32.750Z,78.93
2022-11-18T15:23:00.061Z,78.72
2022-11-18T15:25:26.895Z,78.81
2022-11-18T15:27:54.043Z,78.26
2022-11-18T15:30:24.785Z,78.15
2022-11-18T15:32:51.878Z,78.21
2022-11-18T15:35:19.308Z,78.61
2022-11-18T15:37:46.416Z,78.37
2022-11-18T15:40:34.224Z,78.41
2022-11-18T15:43:36.511Z,78.30
2022-11-18T15:46:34.506Z,77.91
2022-11-18T15:52:57.690Z,78.01
2022-11-18T15:58:08.640Z,78.48
2022-11-18T16:00:35.626Z,78.47
2022-11-18T16:03:07.636Z,78.25
2022-11-18T16:05:34.754Z,78.28
2022-11-18T16:08:01.792Z,78.25
2022-11-18T16:10:47.595Z,78.42
2022-11-18T16:13:14.676Z,78.43
2022-11-18T16:15:44.470Z,78.26
2022-11-18T16:18:11.478Z,78.48
2022-11-18T16:20:39.607Z,78.07
2022-11-18T16:23:06.676Z,78.00
2022-11-18T16:25:33.806Z,78.15
2022-11-18T16:28:05.573Z,77.97
2022-11-18T16:31:14.813Z,78.15
2022-11-18T16:33:42.792Z,78.27
2022-11-18T16:36:10.485Z,78.24
2022-11-18T16:38:38.474Z,78.22
2022-11-18T16:41:25.807Z,77.92
2022-11-18T16:43:53.262Z,78.13
2022-11-18T16:46:20.252Z,78.03
2022-11-18T16:48:47.333Z,77.83
2022-11-18T16:51:19.948Z,77.73
2022-11-18T16:53:53.331Z,77.69
2022-11-18T16:56:22.777Z,77.81
2022-11-18T16:58:58.946Z,77.71
2022-11-18T17:01:29.376Z,78.04
2022-11-18T17:03:57.818Z,78.05
2022-11-18T17:06:33.052Z,77.90
2022-11-18T17:09:00.302Z,77.85
2022-11-18T17:11:30.346Z,78.18
2022-11-18T17:13:58.436Z,78.19
2022-11-18T17:16:25.723Z,78.22
2022-11-18T17:18:56.344Z,78.25
2022-11-18T17:21:23.410Z,78.30
2022-11-18T17:23:53.168Z,78.27
2022-11-18T17:26:21.267Z,78.03
2022-11-18T17:28:48.286Z,78.24
2022-11-18T17:31:16.302Z,78.55
2022-11-18T17:33:44.737Z,78.36
2022-11-18T17:36:23.539Z,78.41
2022-11-18T17:38:51.227Z,78.38
2022-11-18T17:41:38.041Z,78.71
2022-11-18T17:44:12.758Z,78.96
2022-11-18T17:46:39.917Z,78.89
2022-11-18T17:49:07.801Z,78.76
2022-11-18T17:51:35.668Z,78.82
2022-11-18T17:54:05.846Z,79.08
2022-11-18T17:56:33.558Z,79.28
2022-11-18T17:59:00.600Z,79.42
2022-11-18T18:01:28.101Z,79.98
2022-11-18T18:04:01.176Z,80.31
2022-11-18T18:06:32.442Z,80.44
2022-11-18T18:08:59.555Z,80.66
2022-11-18T18:11:26.716Z,81.15
2022-11-18T18:14:12.785Z,81.44
2022-11-18T18:16:49.180Z,81.35
2022-11-18T18:19:19.474Z,81.81
2022-11-18T18:21:46.852Z,82.02
2022-11-18T18:24:16.635Z,82.41
2022-11-18T18:26:44.226Z,82.69
2022-11-18T18:29:11.750Z,83.15
2022-11-18T18:31:38.889Z,83.30
2022-11-18T18:34:08.726Z,83.68
2022-11-18T18:36:35.641Z,83.79
2022-11-18T18:39:02.919Z,84.18
2022-11-18T18:41:55.207Z,84.07
2022-11-18T18:44:22.815Z,84.17
2022-11-18T18:46:52.435Z,84.48
2022-11-18T18:49:22.337Z,84.56
2022-11-18T18:51:50.270Z,84.44
2022-11-18T18:54:20.907Z,84.24
2022-11-18T18:56:53.256Z,84.62
2022-11-18T18:59:23.561Z,84.62
2022-11-18T19:01:50.793Z,84.78
2022-11-18T19:04:18.088Z,84.83
2022-11-18T19:06:53.579Z,84.78
2022-11-18T19:09:26.052Z,84.69
2022-11-18T19:12:11.833Z,84.78
2022-11-18T19:14:39.010Z,84.89
2022-11-18T19:17:10.773Z,85.04
2022-11-18T19:19:57.495Z,85.17
2022-11-18T19:22:26.401Z,85.28
2022-11-18T19:24:56.070Z,85.38
2022-11-18T19:27:23.460Z,85.33
2022-11-18T19:29:50.415Z,85.29
2022-11-18T19:32:17.537Z,85.44
2022-11-18T19:34:45.214Z,85.43
2022-11-18T19:37:17.107Z,85.60
2022-11-18T19:39:44.278Z,85.71
2022-11-18T19:42:12.306Z,85.66
2022-11-18T19:44:39.708Z,85.81
2022-11-18T19:47:06.856Z,85.75
2022-11-18T19:49:34.196Z,85.98
2022-11-18T19:52:01.128Z,86.08
2022-11-18T19:54:28.291Z,86.17
2022-11-18T19:56:55.233Z,86.11
2022-11-18T19:59:22.587Z,86.17
2022-11-18T20:01:49.962Z,85.66
2022-11-18T20:04:17.161Z,85.47
2022-11-18T20:06:44.149Z,85.24
2022-11-18T20:09:12.199Z,85.30
2022-11-18T20:11:39.380Z,85.45
2022-11-18T20:14:06.724Z,85.37
2022-11-18T20:16:33.968Z,85.71
2022-11-18T20:19:11.114Z,85.65
2022-11-18T20:21:39.392Z,85.39
2022-11-18T20:24:07.482Z,85.20
2022-11-18T20:26:35.201Z,84.86
2022-11-18T20:29:02.203Z,84.83
2022-11-18T20:31:29.491Z,85.09
2022-11-18T20:33:57.263Z,85.29
2022-11-18T20:36:25.586Z,85.40
2022-11-18T20:38:53.568Z,85.38
2022-11-18T20:41:20.720Z,85.71
2022-11-18T20:43:48.283Z,86.19
2022-11-18T20:46:20.413Z,86.40
2022-11-18T20:48:48.438Z,86.81
2022-11-18T20:51:16.539Z,86.79
2022-11-18T20:53:43.586Z,86.88
2022-11-18T20:56:11.444Z,86.87
2022-11-18T20:58:38.407Z,86.80
2022-11-18T21:01:12.682Z,86.85
2022-11-18T21:03:39.991Z,86.87
2022-11-18T21:06:14.432Z,86.50
2022-11-18T21:08:41.942Z,86.50
2022-11-18T21:11:10.023Z,86.73
2022-11-18T21:13:55.487Z,86.68
2022-11-18T21:19:04.805Z,86.70
2022-11-18T21:21:52.099Z,86.50
2022-11-18T21:24:23.223Z,86.24
2022-11-18T21:26:51.159Z,86.25
2022-11-18T21:29:18.543Z,86.29
2022-11-18T21:31:48.718Z,86.21
2022-11-18T21:34:16.243Z,86.42
2022-11-18T21:36:45.953Z,85.98
2022-11-18T21:39:16.133Z,85.95
2022-11-18T21:41:54.938Z,86.14
2022-11-18T21:44:28.547Z,86.15
2022-11-18T21:46:55.643Z,86.12
2022-11-18T21:49:22.955Z,86.19
2022-11-18T21:51:50.130Z,86.26
2022-11-18T21:54:18.472Z,86.26
2022-11-18T21:56:45.476Z,86.20
2022-11-18T21:59:12.444Z,86.27
2022-11-18T22:01:39.348Z,86.16
2022-11-18T22:04:06.247Z,86.56
2022-11-18T22:06:34.372Z,86.37
2022-11-18T22:09:02.098Z,86.38
2022-11-18T22:11:29.099Z,86.10
2022-11-18T22:13:56.215Z,85.92
2022-11-18T22:16:23.843Z,86.05
2022-11-18T22:18:56.530Z,86.11
2022-11-18T22:21:28.470Z,85.89
2022-11-18T22:23:59.519Z,86.06
2022-11-18T22:26:26.448Z,85.90
2022-11-18T22:28:53.953Z,86.14
2022-11-18T22:31:21.598Z,86.26
2022-11-18T22:33:49.110Z,86.35
2022-11-18T22:36:16.713Z,86.27
2022-11-18T22:38:43.879Z,86.00
2022-11-18T22:41:34.195Z,86.13
2022-11-18T22:44:05.670Z,86.23
2022-11-18T22:46:35.037Z,86.40
2022-11-18T22:49:02.148Z,86.23
2022-11-18T22:51:29.213Z,86.29
2022-11-18T22:54:15.870Z,86.26
2022-11-18T22:56:43.444Z,86.14
2022-11-18T22:59:11.105Z,86.50
2022-11-18T23:01:38.045Z,86.56
2022-11-18T23:04:04.972Z,86.70
2022-11-18T23:06:32.184Z,87.15
2022-11-18T23:08:59.115Z,87.41
2022-11-18T23:11:44.554Z,87.64
2022-11-18T23:14:11.394Z,87.83
2022-11-18T23:16:39.621Z,88.02
2022-11-18T23:19:07.434Z,88.39
2022-11-18T23:21:34.359Z,88.40
2022-11-18T23:24:03.645Z,88.75
2022-11-18T23:26:30.752Z,88.98
2022-11-18T23:28:57.660Z,89.38
2022-11-18T23:31:25.418Z,89.64
2022-11-18T23:33:54.547Z,89.74
2022-11-18T23:36:21.790Z,89.95
2022-11-18T23:38:48.734Z,90.21
2022-11-18T23:41:18.850Z,90.41
2022-11-18T23:43:47.347Z,90.46
2022-11-18T23:46:14.964Z,90.63
2022-11-18T23:48:42.703Z,90.84
2022-11-18T23:51:16.147Z,90.83
2022-11-18T23:53:43.238Z,91.26
2022-11-18T23:56:11.195Z,91.34
2022-11-18T23:58:38.532Z,91.27
